createdAt,value
2023-06-29T00:01:47.907Z,5.13
2023-06-29T00:06:46.422Z,5.82
2023-06-29T00:11:39.343Z,5.07
2023-06-29T00:14:05.708Z,4.38
2023-06-29T00:19:02.157Z,3.50
2023-06-29T00:21:32.651Z,6.25
2023-06-29T00:23:59.690Z,3.85
2023-06-29T00:26:30.253Z,4.25
2023-06-29T00:28:57.582Z,5.78
2023-06-29T00:31:25.299Z,6.13
2023-06-29T00:33:52.143Z,5.97
2023-06-29T00:36:19.061Z,4.40
2023-06-29T00:38:45.470Z,4.45
2023-06-29T00:43:38.284Z,4.30
2023-06-29T00:46:08.773Z,4.25
2023-06-29T00:48:37.326Z,5.03
2023-06-29T00:51:04.703Z,5.32
2023-06-29T00:53:31.368Z,6.97
2023-06-29T00:55:59.838Z,4.57
2023-06-29T00:58:26.822Z,5.75
2023-06-29T01:00:53.179Z,5.85
2023-06-29T01:05:50.306Z,3.65
2023-06-29T01:08:23.086Z,4.00
2023-06-29T01:13:19.142Z,5.10
2023-06-29T01:15:47.934Z,4.28
2023-06-29T01:18:16.759Z,4.55
2023-06-29T01:20:44.946Z,4.93
2023-06-29T01:23:37.669Z,4.03
2023-06-29T01:26:05.258Z,4.45
2023-06-29T01:28:33.223Z,4.40
2023-06-29T01:31:03.275Z,3.80
2023-06-29T01:33:31.013Z,5.35
2023-06-29T01:36:32.633Z,8.15
2023-06-29T01:39:03.632Z,4.00
2023-06-29T01:41:36.018Z,4.82
2023-06-29T01:44:06.162Z,4.45
2023-06-29T01:46:33.450Z,4.65
2023-06-29T01:49:00.144Z,3.55
2023-06-29T01:51:26.703Z,4.30
2023-06-29T01:53:54.268Z,4.10
2023-06-29T01:56:21.005Z,5.38
2023-06-29T01:58:47.371Z,4.45
2023-06-29T02:03:40.216Z,4.53
2023-06-29T02:06:06.846Z,3.85
2023-06-29T02:08:34.549Z,4.88
2023-06-29T02:11:01.571Z,4.68
2023-06-29T02:13:27.912Z,6.13
2023-06-29T02:15:54.352Z,3.80
2023-06-29T02:18:20.756Z,4.68
2023-06-29T02:20:47.222Z,3.78
2023-06-29T02:25:39.846Z,4.57
2023-06-29T02:28:06.213Z,3.58
2023-06-29T02:32:59.011Z,4.88
2023-06-29T02:37:51.671Z,3.55
2023-06-29T02:40:18.040Z,3.83
2023-06-29T02:42:44.494Z,4.50
2023-06-29T02:47:37.264Z,3.85
2023-06-29T02:52:30.239Z,6.18
2023-06-29T02:54:56.552Z,5.85
2023-06-29T02:57:22.881Z,4.50
2023-06-29T02:59:49.241Z,5.22
2023-06-29T03:02:15.620Z,3.30
2023-06-29T03:07:08.447Z,4.30
2023-06-29T03:09:34.781Z,5.70
2023-06-29T03:12:01.103Z,4.28
2023-06-29T03:14:27.441Z,4.38
2023-06-29T03:16:53.883Z,5.82
2023-06-29T03:21:46.559Z,7.07
2023-06-29T03:24:13.162Z,3.90
2023-06-29T03:26:39.511Z,9.50
2023-06-29T03:29:05.857Z,17.15
2023-06-29T03:31:32.246Z,56.10
2023-06-29T03:36:25.119Z,97.85
2023-06-29T03:38:51.458Z,105.72
2023-06-29T03:41:17.811Z,99.10
2023-06-29T03:43:44.203Z,90.60
2023-06-29T03:46:10.820Z,71.75
2023-06-29T03:48:37.645Z,60.10
2023-06-29T03:51:04.123Z,52.22
2023-06-29T03:55:56.855Z,27.98
2023-06-29T03:58:23.237Z,25.40
2023-06-29T04:00:49.568Z,18.85
2023-06-29T04:03:15.997Z,11.55
2023-06-29T04:08:11.031Z,9.05
2023-06-29T04:10:37.378Z,10.25
2023-06-29T04:13:03.810Z,8.30
2023-06-29T04:17:57.706Z,6.65
2023-06-29T04:20:24.107Z,7.97
2023-06-29T04:22:50.434Z,6.63
2023-06-29T04:25:16.872Z,7.47
2023-06-29T04:30:10.241Z,5.75
2023-06-29T04:32:36.664Z,8.18
2023-06-29T04:37:41.689Z,4.20
2023-06-29T04:40:15.274Z,8.10
2023-06-29T04:42:49.074Z,3.95
2023-06-29T04:45:20.156Z,7.25
2023-06-29T04:47:47.949Z,6.45
2023-06-29T04:50:14.592Z,5.75
2023-06-29T04:52:41.199Z,4.53
2023-06-29T04:55:09.176Z,5.18
2023-06-29T04:57:36.060Z,4.50
2023-06-29T05:00:02.459Z,5.10
2023-06-29T05:04:55.568Z,5.18
2023-06-29T05:07:21.934Z,5.63
2023-06-29T05:12:15.639Z,6.68
2023-06-29T05:14:41.976Z,5.28
2023-06-29T05:17:08.779Z,5.72
2023-06-29T05:19:36.690Z,5.75
2023-06-29T05:22:03.653Z,6.63
2023-06-29T05:24:31.028Z,4.95
2023-06-29T05:26:57.614Z,4.38
2023-06-29T05:29:24.254Z,6.35
2023-06-29T05:31:50.631Z,6.85
2023-06-29T05:34:17.008Z,8.10
2023-06-29T05:39:09.738Z,5.05
2023-06-29T05:41:36.177Z,7.60
2023-06-29T05:46:29.034Z,9.27
2023-06-29T05:48:55.410Z,14.18
2023-06-29T05:53:48.121Z,6.85
2023-06-29T05:56:14.507Z,6.40
2023-06-29T05:58:40.829Z,5.15
2023-06-29T06:03:34.389Z,7.03
2023-06-29T06:06:00.963Z,7.20
2023-06-29T06:08:27.306Z,5.38
2023-06-29T06:13:20.134Z,6.22
2023-06-29T06:15:46.657Z,4.30
2023-06-29T06:18:13.082Z,5.25
2023-06-29T06:20:39.684Z,5.03
2023-06-29T06:23:06.626Z,8.00
2023-06-29T06:25:33.014Z,7.82
2023-06-29T06:27:59.348Z,5.80
2023-06-29T06:30:25.759Z,4.00
2023-06-29T06:32:52.187Z,7.47
2023-06-29T06:35:18.543Z,5.05
2023-06-29T06:37:44.914Z,5.68
2023-06-29T06:40:11.783Z,7.05
2023-06-29T06:42:38.608Z,4.63
2023-06-29T06:45:06.379Z,4.97
2023-06-29T06:47:36.546Z,4.57
2023-06-29T06:50:04.868Z,3.85
2023-06-29T06:52:31.293Z,6.13
2023-06-29T06:54:57.786Z,5.07
2023-06-29T06:57:24.240Z,4.78
2023-06-29T06:59:50.602Z,7.22
2023-06-29T07:02:17.265Z,5.88
2023-06-29T07:04:43.867Z,7.18
2023-06-29T07:07:10.394Z,5.35
2023-06-29T07:09:36.929Z,3.55
2023-06-29T07:12:03.562Z,5.57
2023-06-29T07:14:29.957Z,7.72
2023-06-29T07:16:56.859Z,4.82
2023-06-29T07:24:22.487Z,3.85
2023-06-29T07:26:49.099Z,5.60
2023-06-29T07:29:15.539Z,3.80
2023-06-29T07:31:41.873Z,5.68
2023-06-29T07:34:08.300Z,4.43
2023-06-29T07:36:35.458Z,4.22
2023-06-29T07:39:01.864Z,3.70
2023-06-29T07:41:28.694Z,4.60
2023-06-29T07:43:57.284Z,4.75
2023-06-29T07:46:24.409Z,3.95
2023-06-29T07:48:51.882Z,4.20
2023-06-29T07:51:18.792Z,4.78
2023-06-29T07:53:45.442Z,4.85
2023-06-29T07:56:11.857Z,5.15
2023-06-29T07:58:40.102Z,3.22
2023-06-29T08:01:07.068Z,4.00
2023-06-29T08:03:44.101Z,2.97
2023-06-29T08:08:47.947Z,3.63
2023-06-29T08:11:17.814Z,3.78
2023-06-29T08:13:44.168Z,3.95
2023-06-29T08:16:10.644Z,4.22
2023-06-29T08:18:37.163Z,3.90
2023-06-29T08:21:03.668Z,2.80
2023-06-29T08:23:32.850Z,3.50
2023-06-29T08:25:59.255Z,5.57
2023-06-29T08:28:25.610Z,3.15
2023-06-29T08:30:52.652Z,3.90
2023-06-29T08:33:19.101Z,3.92
2023-06-29T08:35:45.580Z,3.85
2023-06-29T08:38:11.953Z,2.80
2023-06-29T08:40:39.555Z,4.40
2023-06-29T08:43:06.014Z,3.75
2023-06-29T08:45:32.380Z,4.55
2023-06-29T08:48:01.483Z,3.67
2023-06-29T08:50:28.083Z,2.78
2023-06-29T08:52:55.715Z,5.32
2023-06-29T08:55:23.960Z,4.88
2023-06-29T08:57:50.481Z,3.45
2023-06-29T09:00:17.147Z,8.60
2023-06-29T09:02:44.507Z,5.38
2023-06-29T09:05:13.236Z,3.90
2023-06-29T09:07:41.556Z,5.65
2023-06-29T09:10:11.380Z,3.97
2023-06-29T09:12:38.039Z,3.55
2023-06-29T09:15:12.419Z,4.93
2023-06-29T09:17:45.621Z,4.57
2023-06-29T09:20:14.506Z,3.80
2023-06-29T09:22:41.914Z,4.97
2023-06-29T09:25:23.462Z,3.83
2023-06-29T09:28:08.547Z,6.05
2023-06-29T09:30:39.911Z,3.40
2023-06-29T09:33:13.538Z,3.30
2023-06-29T09:35:44.947Z,4.05
2023-06-29T09:38:11.702Z,5.10
2023-06-29T09:40:49.109Z,3.70
2023-06-29T09:43:17.228Z,4.18
2023-06-29T09:45:43.741Z,4.32
2023-06-29T09:50:49.204Z,3.90
2023-06-29T09:53:16.428Z,4.85
2023-06-29T09:55:43.783Z,2.95
2023-06-29T09:58:11.523Z,3.58
2023-06-29T10:00:38.626Z,3.00
2023-06-29T10:03:05.323Z,2.85
2023-06-29T10:05:33.071Z,3.95
2023-06-29T10:08:05.592Z,4.85
2023-06-29T10:10:34.438Z,4.93
2023-06-29T10:13:05.798Z,2.70
2023-06-29T10:15:34.164Z,4.95
2023-06-29T10:18:05.217Z,4.65
2023-06-29T10:20:33.842Z,4.55
2023-06-29T10:23:04.346Z,3.83
2023-06-29T10:25:33.477Z,2.80
2023-06-29T10:28:01.067Z,5.80
2023-06-29T10:30:27.371Z,2.45
2023-06-29T10:32:54.471Z,2.97
2023-06-29T10:35:26.810Z,4.32
2023-06-29T10:37:57.745Z,5.10
2023-06-29T10:40:27.045Z,3.63
2023-06-29T10:42:57.447Z,4.57
2023-06-29T10:45:23.829Z,7.78
2023-06-29T10:47:59.319Z,3.95
2023-06-29T10:50:29.683Z,3.15
2023-06-29T10:53:00.850Z,2.97
2023-06-29T10:55:32.198Z,3.03
2023-06-29T10:58:12.873Z,3.00
2023-06-29T11:00:39.685Z,4.03
2023-06-29T11:03:06.857Z,3.28
2023-06-29T11:05:34.341Z,4.93
2023-06-29T11:08:01.096Z,3.92
2023-06-29T11:10:27.578Z,4.53
2023-06-29T11:12:56.634Z,2.92
2023-06-29T11:15:23.961Z,4.53
2023-06-29T11:17:52.284Z,7.40
2023-06-29T11:20:23.861Z,6.20
2023-06-29T11:22:52.401Z,3.85
2023-06-29T11:25:21.233Z,4.53
2023-06-29T11:27:47.690Z,4.43
2023-06-29T11:30:14.200Z,5.47
2023-06-29T11:32:42.045Z,6.90
2023-06-29T11:35:13.706Z,5.82
2023-06-29T11:37:40.550Z,4.88
2023-06-29T11:40:18.008Z,4.60
2023-06-29T11:42:44.606Z,3.53
2023-06-29T11:45:11.931Z,4.90
2023-06-29T11:47:38.702Z,3.17
2023-06-29T11:50:08.616Z,3.85
2023-06-29T11:52:36.832Z,4.07
2023-06-29T11:55:08.504Z,5.03
2023-06-29T11:57:36.126Z,5.10
2023-06-29T12:00:05.166Z,5.57
2023-06-29T12:02:31.994Z,4.55
2023-06-29T12:04:59.965Z,3.90
2023-06-29T12:07:37.604Z,5.22
2023-06-29T12:10:14.596Z,3.58
2023-06-29T12:12:46.530Z,6.45
2023-06-29T12:15:17.062Z,5.55
2023-06-29T12:20:18.612Z,5.95
2023-06-29T12:22:47.056Z,5.03
2023-06-29T12:25:16.009Z,4.93
2023-06-29T12:27:44.286Z,6.95
2023-06-29T12:30:12.724Z,5.97
2023-06-29T12:32:39.244Z,5.72
2023-06-29T12:35:06.090Z,7.07
2023-06-29T12:37:32.458Z,6.57
2023-06-29T12:39:58.859Z,6.72
2023-06-29T12:42:25.231Z,6.30
2023-06-29T12:44:51.857Z,5.55
2023-06-29T12:47:21.458Z,4.60
2023-06-29T12:49:48.376Z,4.50
2023-06-29T12:52:16.903Z,5.20
2023-06-29T12:54:43.443Z,5.53
2023-06-29T12:57:10.160Z,5.47
2023-06-29T12:59:39.437Z,5.38
2023-06-29T13:02:06.968Z,5.85
2023-06-29T13:04:39.224Z,4.95
2023-06-29T13:09:35.230Z,4.07
2023-06-29T13:12:02.275Z,8.40
2023-06-29T13:14:32.129Z,5.82
2023-06-29T13:16:59.386Z,6.88
2023-06-29T13:19:27.450Z,6.47
2023-06-29T13:21:55.326Z,4.85
2023-06-29T13:24:23.295Z,3.85
2023-06-29T13:26:51.147Z,5.78
2023-06-29T13:29:20.477Z,5.10
2023-06-29T13:31:47.140Z,5.15
2023-06-29T13:34:14.369Z,5.78
2023-06-29T13:36:40.737Z,4.50
2023-06-29T13:39:08.489Z,4.88
2023-06-29T13:41:39.678Z,4.43
2023-06-29T13:44:07.113Z,5.97
2023-06-29T13:46:33.500Z,5.32
2023-06-29T13:49:00.097Z,4.18
2023-06-29T13:51:31.201Z,4.10
2023-06-29T13:53:58.569Z,4.60
2023-06-29T13:56:25.370Z,4.97
2023-06-29T13:58:54.952Z,5.15
2023-06-29T14:01:21.868Z,4.95
2023-06-29T14:03:49.057Z,4.78
2023-06-29T14:06:19.595Z,4.82
2023-06-29T14:08:47.640Z,6.38
2023-06-29T14:11:14.069Z,6.05
2023-06-29T14:13:40.536Z,5.78
2023-06-29T14:16:07.005Z,4.95
2023-06-29T14:18:33.415Z,7.22
2023-06-29T14:20:59.813Z,6.57
2023-06-29T14:23:26.837Z,5.45
2023-06-29T14:25:53.190Z,5.38
2023-06-29T14:28:19.877Z,6.68
2023-06-29T14:30:46.689Z,6.18
2023-06-29T14:33:24.202Z,4.35
2023-06-29T14:35:58.922Z,6.45
2023-06-29T14:38:26.337Z,6.88
2023-06-29T14:40:52.725Z,4.28
2023-06-29T14:43:19.627Z,5.18
2023-06-29T14:45:46.197Z,4.78
2023-06-29T14:48:12.794Z,6.55
2023-06-29T14:50:39.197Z,6.80
2023-06-29T14:53:05.671Z,4.50
2023-06-29T14:55:32.084Z,4.70
2023-06-29T14:58:01.266Z,6.40
2023-06-29T15:00:27.758Z,6.57
2023-06-29T15:02:54.218Z,5.35
2023-06-29T15:05:20.679Z,5.95
2023-06-29T15:07:47.059Z,4.70
2023-06-29T15:10:13.456Z,6.00
2023-06-29T15:12:39.908Z,5.45
2023-06-29T15:15:06.953Z,6.20
2023-06-29T15:17:33.338Z,6.30
2023-06-29T15:20:00.855Z,6.93
2023-06-29T15:22:27.814Z,5.28
2023-06-29T15:24:54.610Z,5.07
2023-06-29T15:27:20.995Z,5.30
2023-06-29T15:29:50.600Z,6.72
2023-06-29T15:32:16.938Z,6.15
2023-06-29T15:34:43.290Z,7.88
2023-06-29T15:37:09.776Z,8.68
2023-06-29T15:39:36.391Z,6.68
2023-06-29T15:42:03.386Z,5.03
2023-06-29T15:44:29.745Z,6.10
2023-06-29T15:46:56.367Z,6.72
2023-06-29T15:49:23.055Z,5.05
2023-06-29T15:51:50.159Z,5.50
2023-06-29T15:54:18.087Z,6.07
2023-06-29T15:56:45.201Z,4.63
2023-06-29T15:59:12.342Z,4.75
2023-06-29T16:01:39.172Z,6.03
2023-06-29T16:04:17.117Z,5.70
2023-06-29T16:06:46.419Z,5.63
2023-06-29T16:09:13.176Z,4.93
2023-06-29T16:11:39.693Z,5.07
2023-06-29T16:14:06.166Z,6.00
2023-06-29T16:16:32.543Z,5.65
2023-06-29T16:18:58.900Z,10.32
2023-06-29T16:21:25.258Z,5.00
2023-06-29T16:23:51.675Z,6.65
2023-06-29T16:26:18.333Z,7.95
2023-06-29T16:28:44.735Z,8.43
2023-06-29T16:31:11.220Z,6.93
2023-06-29T16:33:37.864Z,7.13
2023-06-29T16:36:04.357Z,5.55
2023-06-29T16:38:30.709Z,8.05
2023-06-29T16:40:57.589Z,5.97
2023-06-29T16:43:23.977Z,5.18
2023-06-29T16:45:50.976Z,5.03
2023-06-29T16:48:17.445Z,7.55
2023-06-29T16:50:43.941Z,6.82
2023-06-29T16:53:10.425Z,7.65
2023-06-29T16:55:36.815Z,5.60
2023-06-29T16:58:03.932Z,7.97
2023-06-29T17:00:30.594Z,5.15
2023-06-29T17:02:57.073Z,6.97
2023-06-29T17:05:23.596Z,6.13
2023-06-29T17:07:50.164Z,7.35
2023-06-29T17:10:16.563Z,8.25
2023-06-29T17:12:42.978Z,6.97
2023-06-29T17:15:10.236Z,7.15
2023-06-29T17:17:36.707Z,6.15
2023-06-29T17:20:03.929Z,5.13
2023-06-29T17:22:30.356Z,5.43
2023-06-29T17:24:56.740Z,7.05
2023-06-29T17:27:23.162Z,8.23
2023-06-29T17:29:49.821Z,7.22
2023-06-29T17:32:16.206Z,8.98
2023-06-29T17:34:42.693Z,5.50
2023-06-29T17:37:10.571Z,5.97
2023-06-29T17:39:37.080Z,6.20
2023-06-29T17:42:03.770Z,5.53
2023-06-29T17:44:30.490Z,8.20
2023-06-29T17:46:57.192Z,8.65
2023-06-29T17:49:27.878Z,7.70
2023-06-29T17:51:54.826Z,6.30
2023-06-29T17:54:21.257Z,8.73
2023-06-29T17:56:47.589Z,7.85
2023-06-29T17:59:13.979Z,6.20
2023-06-29T18:01:40.400Z,7.03
2023-06-29T18:04:07.043Z,8.07
2023-06-29T18:06:33.678Z,5.60
2023-06-29T18:09:03.333Z,8.18
2023-06-29T18:11:29.727Z,6.10
2023-06-29T18:13:56.130Z,6.68
2023-06-29T18:16:25.638Z,9.00
2023-06-29T18:18:52.132Z,8.55
2023-06-29T18:21:21.070Z,8.52
2023-06-29T18:23:47.465Z,8.65
2023-06-29T18:26:13.870Z,7.47
2023-06-29T18:28:40.253Z,9.10
2023-06-29T18:31:07.778Z,8.93
2023-06-29T18:33:37.246Z,9.07
2023-06-29T18:36:06.704Z,8.60
2023-06-29T18:38:33.086Z,7.78
2023-06-29T18:41:04.173Z,7.38
2023-06-29T18:43:30.603Z,7.25
2023-06-29T18:45:57.061Z,7.57
2023-06-29T18:48:23.490Z,6.72
2023-06-29T18:50:49.840Z,7.53
2023-06-29T18:53:16.328Z,6.47
2023-06-29T18:55:42.975Z,7.05
2023-06-29T18:58:09.389Z,8.45
2023-06-29T19:00:36.842Z,7.80
2023-06-29T19:03:03.419Z,7.55
2023-06-29T19:05:30.821Z,8.93
2023-06-29T19:07:57.355Z,7.18
2023-06-29T19:10:23.792Z,7.10
2023-06-29T19:12:50.339Z,7.63
2023-06-29T19:15:16.980Z,6.97
2023-06-29T19:17:43.787Z,5.80
2023-06-29T19:20:10.877Z,8.48
2023-06-29T19:22:37.367Z,8.18
2023-06-29T19:25:07.873Z,7.78
2023-06-29T19:27:34.284Z,10.10
2023-06-29T19:30:00.694Z,8.32
2023-06-29T19:32:27.135Z,6.65
2023-06-29T19:34:53.550Z,7.03
2023-06-29T19:37:21.487Z,6.85
2023-06-29T19:39:49.737Z,7.10
2023-06-29T19:42:16.219Z,7.57
2023-06-29T19:44:42.540Z,7.63
2023-06-29T19:47:09.118Z,9.80
2023-06-29T19:49:35.491Z,9.65
2023-06-29T19:52:01.890Z,9.88
2023-06-29T19:54:28.269Z,8.23
2023-06-29T19:56:54.738Z,7.03
2023-06-29T19:59:21.259Z,6.50
2023-06-29T20:01:47.696Z,6.95
2023-06-29T20:04:14.163Z,7.65
2023-06-29T20:06:40.669Z,9.38
2023-06-29T20:09:07.081Z,7.70
2023-06-29T20:11:33.553Z,8.15
2023-06-29T20:13:59.934Z,9.50
2023-06-29T20:16:26.372Z,8.82
2023-06-29T20:18:52.816Z,8.38
2023-06-29T20:21:19.241Z,9.50
2023-06-29T20:23:51.236Z,7.82
2023-06-29T20:26:18.863Z,6.70
2023-06-29T20:28:45.462Z,8.70
2023-06-29T20:31:11.852Z,8.55
2023-06-29T20:33:38.402Z,8.45
2023-06-29T20:36:04.832Z,8.57
2023-06-29T20:38:31.260Z,7.97
2023-06-29T20:40:57.658Z,10.60
2023-06-29T20:43:23.983Z,10.25
2023-06-29T20:45:51.176Z,6.30
2023-06-29T20:48:17.846Z,6.10
2023-06-29T20:50:44.473Z,6.35
2023-06-29T20:53:11.327Z,7.47
2023-06-29T20:55:37.727Z,7.20
2023-06-29T20:58:04.195Z,7.30
2023-06-29T21:00:30.859Z,8.25
2023-06-29T21:02:57.492Z,9.73
2023-06-29T21:05:25.065Z,7.82
2023-06-29T21:07:53.377Z,8.55
2023-06-29T21:10:19.819Z,9.07
2023-06-29T21:12:46.472Z,8.95
2023-06-29T21:15:13.350Z,8.38
2023-06-29T21:17:39.902Z,7.05
2023-06-29T21:20:07.266Z,8.57
2023-06-29T21:22:35.368Z,6.78
2023-06-29T21:25:02.777Z,8.52
2023-06-29T21:27:30.260Z,7.63
2023-06-29T21:29:57.268Z,7.93
2023-06-29T21:32:23.819Z,8.63
2023-06-29T21:34:50.337Z,7.75
2023-06-29T21:37:16.944Z,6.80
2023-06-29T21:39:43.374Z,9.15
2023-06-29T21:42:09.851Z,8.10
2023-06-29T21:44:36.397Z,7.40
2023-06-29T21:47:03.776Z,8.30
2023-06-29T21:49:30.503Z,6.38
2023-06-29T21:51:57.038Z,7.03
2023-06-29T21:54:23.516Z,7.38
2023-06-29T21:56:52.569Z,9.55
2023-06-29T21:59:19.076Z,7.82
2023-06-29T22:01:45.552Z,6.68
2023-06-29T22:04:12.244Z,8.07
2023-06-29T22:06:38.690Z,8.35
2023-06-29T22:09:05.013Z,7.85
2023-06-29T22:11:31.446Z,10.02
2023-06-29T22:13:57.892Z,7.65
2023-06-29T22:16:24.426Z,5.82
2023-06-29T22:18:51.849Z,6.97
2023-06-29T22:21:22.020Z,6.05
2023-06-29T22:23:50.425Z,7.88
2023-06-29T22:26:17.287Z,7.18
2023-06-29T22:28:44.228Z,6.22
2023-06-29T22:31:10.940Z,6.80
2023-06-29T22:33:37.347Z,8.00
2023-06-29T22:36:04.069Z,7.13
2023-06-29T22:38:30.953Z,7.95
2023-06-29T22:40:58.332Z,7.22
2023-06-29T22:43:24.676Z,7.05
2023-06-29T22:45:51.775Z,6.82
2023-06-29T22:48:21.904Z,7.63
2023-06-29T22:50:48.336Z,8.55
2023-06-29T22:53:14.720Z,8.90
2023-06-29T22:55:41.491Z,8.63
2023-06-29T22:58:07.836Z,9.73
2023-06-29T23:00:34.215Z,6.63
2023-06-29T23:03:00.811Z,5.95
2023-06-29T23:05:27.247Z,6.65
2023-06-29T23:07:53.597Z,7.07
2023-06-29T23:10:20.907Z,6.63
2023-06-29T23:12:47.425Z,7.55
2023-06-29T23:15:14.537Z,8.73
2023-06-29T23:17:41.242Z,6.95
2023-06-29T23:20:11.822Z,9.68
2023-06-29T23:22:38.955Z,6.70
2023-06-29T23:25:08.158Z,6.03
2023-06-29T23:27:38.210Z,7.00
2023-06-29T23:30:09.323Z,7.50
2023-06-29T23:32:37.217Z,7.53
2023-06-29T23:35:07.117Z,7.03
2023-06-29T23:37:33.471Z,6.70
2023-06-29T23:39:59.854Z,9.77
2023-06-29T23:42:26.304Z,8.85
2023-06-29T23:44:53.243Z,6.53
2023-06-29T23:47:19.762Z,6.35
2023-06-29T23:49:48.342Z,6.13
2023-06-29T23:52:15.036Z,8.52
2023-06-29T23:54:41.521Z,7.30
2023-06-29T23:57:07.907Z,7.28
2023-06-29T23:59:34.245Z,6.72
